Aérodrome :
LOGIN :

S'inscrire | Disclaimer

   EN    FR    IT 

 










Légende :    VFR   VFR Marginal   IFR   IFR Intensif   IFR Très Intensif
Visi : 
Plafond : 
>= 8 km
>= 3000ft
5 à 8 km
1000 à 3000 ft
1500m à 5 km
500 à 1000 ft
800 à 1500m
200 à 500 ft
< 800m
< 200 ft
Symboles :   Orages  Brouillard  Fortes neiges  Fortes précipitations  Vent > 20 kt
SIGMETs :   Divers  Orages  Givrage  Turbulence  Onde Orograph.  Cendres Volcan.






- Altitude de l'aérodrome : 392 ft
- Code IATA : CDG


LFPG - Paris-Aeroport Charles De Gaulle

DERNIER METAR :
  • 232230Z 05008KT 4000 BR NSC M01/M01 Q1025 NOSIG

METARs EXPIRÉS :
  • 232200Z 05008KT 030V090 4000 BR FEW002 M01/M01 Q1025 NOSIG
  • 232130Z 04007KT 2500 BR SCT002 SCT190 00/M01 Q1025 NOSIG
  • 232100Z 04007KT 020V090 2500 BR SCT002 00/M00 Q1025 NOSIG
  • 232030Z 01005KT 360V080 6000 NSC M00/M01 Q1026 NOSIG
  • 232000Z 03006KT 020V110 6000 NSC M00/M01 Q1026 NOSIG
  • 231930Z 03007KT 6000 NSC M00/M01 Q1026 NOSIG

TAF AMD TAF LFPG
Valide du 23 à 18h jusqu'au 25 à 00h UTC


231808Z 2318/2424 05010KT 9999 SCT012 TX05/2415Z TNM02/2406Z
BECMG 2318/2320 4000 BR BKN005
BECMG 2320/2322 05005KT 2000 BR BKN003
TEMPO 2400/2407 0500 FG VV///
PROB30
TEMPO 2400/2407 FZFG
BECMG 2408/2410 6000 NSW BKN008
PROB30
TEMPO 2413/2417 BKN010
BECMG 2416/2418 3000 BR BKN003
PROB40
TEMPO 2418/2424 VRB02KT 2000 BR OVC001
PROB30
TEMPO 2418/2424 0500 FG VV///
ATIS : +33 1 48 62 10 92



MET'MAP, la Météo Aéronautique d'un coup d'oeil ! - Copyright ORBIFLY Décembre 2007 - Disclaimer

ORBIFLY MET'MAP TEAM :

Programmation & Développement : Alexandra Zaïnal
Sur une idée originale de : Baudouin d'Aumeries
Assistance à la programmation : Marc-Olivier Méhu
Soutien technique & logistique : Manuel Goepfert

Contact : metmap@orbifly.com




SOURCES & CREDITS :

   NOAA